Time;durP1;ratioP1;P1;durP2;ratioP2;P2;SDS_P1;SDS_P2;PMS_P1;PMS_P2;Temp;Humidity;BMP_temperature;BMP_pressure;BME280_temperature;BME280_humidity;BME280_pressure;Samples;Min_cycle;Max_cycle;Signal;HPM_P1;HPM_P2
2023/05/30 00:02:16;;;;;;;57.27;2.37;;;;;;;;;;5070777;28;20475;-69
2023/05/30 00:04:43;;;;;;;57.07;2.30;;;;;;;;;;5070895;28;20656;-69
2023/05/30 00:07:12;;;;;;;57.20;2.43;;;;;;;;;;5070903;28;20450;-69
2023/05/30 00:09:39;;;;;;;57.47;2.40;;;;;;;;;;5070165;28;20443;-69
2023/05/30 00:12:07;;;;;;;59.00;3.00;;;;;;;;;;5070557;28;20482;-69
2023/05/30 00:14:36;;;;;;;57.37;2.43;;;;;;;;;;5070403;28;20478;-69
2023/05/30 00:17:05;;;;;;;57.57;2.53;;;;;;;;;;5070875;28;20497;-69
2023/05/30 00:19:32;;;;;;;57.50;2.87;;;;;;;;;;5072490;28;20454;-69
2023/05/30 00:21:59;;;;;;;57.90;3.13;;;;;;;;;;5074494;28;20860;-69
2023/05/30 00:24:28;;;;;;;57.27;2.47;;;;;;;;;;5074655;28;20460;-69
2023/05/30 00:26:55;;;;;;;57.47;2.87;;;;;;;;;;5074480;28;20451;-69
2023/05/30 00:29:22;;;;;;;57.87;3.00;;;;;;;;;;5073673;28;20483;-69
2023/05/30 00:31:49;;;;;;;58.00;2.90;;;;;;;;;;5074276;28;20514;-69
2023/05/30 00:34:17;;;;;;;57.40;2.60;;;;;;;;;;5074158;28;20486;-69
2023/05/30 00:36:44;;;;;;;57.07;2.40;;;;;;;;;;5073987;28;20451;-69
2023/05/30 00:39:13;;;;;;;57.27;2.37;;;;;;;;;;5073224;28;20443;-69
2023/05/30 00:41:42;;;;;;;57.70;3.10;;;;;;;;;;5074308;28;20550;-69
2023/05/30 00:44:09;;;;;;;57.40;2.70;;;;;;;;;;5074093;28;20449;-69
2023/05/30 00:46:36;;;;;;;57.50;2.50;;;;;;;;;;5073834;28;20951;-69
2023/05/30 00:49:03;;;;;;;57.57;2.70;;;;;;;;;;5073374;28;20447;-69
2023/05/30 00:51:31;;;;;;;57.80;2.87;;;;;;;;;;5073794;28;20937;-69
2023/05/30 00:53:59;;;;;;;57.30;2.60;;;;;;;;;;5073774;28;20489;-69
2023/05/30 00:56:27;;;;;;;57.20;2.40;;;;;;;;;;5073596;28;20458;-69
2023/05/30 00:58:57;;;;;;;57.90;2.70;;;;;;;;;;5073248;28;20474;-69
2023/05/30 01:01:24;;;;;;;59.40;4.30;;;;;;;;;;5073899;28;20481;-69
2023/05/30 01:03:52;;;;;;;57.80;2.80;;;;;;;;;;5073876;28;20443;-69
2023/05/30 01:06:19;;;;;;;57.90;2.90;;;;;;;;;;5073553;28;20449;-69
2023/05/30 01:08:47;;;;;;;58.87;2.50;;;;;;;;;;5072750;28;20451;-69
2023/05/30 01:11:21;;;;;;;57.30;2.50;;;;;;;;;;5073351;28;20997;-69
2023/05/30 01:13:52;;;;;;;57.27;2.43;;;;;;;;;;5073468;28;20587;-69
2023/05/30 01:16:25;;;;;;;57.90;2.73;;;;;;;;;;5073708;28;20449;-69
2023/05/30 01:18:55;;;;;;;57.67;2.57;;;;;;;;;;5072631;28;20462;-69
2023/05/30 01:21:22;;;;;;;57.27;2.20;;;;;;;;;;5073701;28;20467;-69
2023/05/30 01:23:56;;;;;;;58.20;2.80;;;;;;;;;;5073360;28;20459;-69
2023/05/30 01:26:27;;;;;;;57.43;2.60;;;;;;;;;;5073616;28;20431;-69
2023/05/30 01:28:58;;;;;;;57.17;2.50;;;;;;;;;;5072372;28;20436;-69
2023/05/30 01:31:26;;;;;;;57.50;2.90;;;;;;;;;;5069980;28;20477;-69
2023/05/30 01:33:53;;;;;;;57.60;2.77;;;;;;;;;;5072993;28;20482;-69
2023/05/30 01:36:21;;;;;;;57.37;2.60;;;;;;;;;;5073059;28;20861;-69
2023/05/30 01:38:48;;;;;;;57.37;2.40;;;;;;;;;;5072160;28;21479;-69
2023/05/30 01:41:17;;;;;;;57.53;2.53;;;;;;;;;;5072981;28;20572;-69
2023/05/30 01:43:47;;;;;;;57.70;2.70;;;;;;;;;;5073084;28;20448;-69
2023/05/30 01:46:22;;;;;;;57.50;2.60;;;;;;;;;;5072977;28;20470;-69
2023/05/30 01:48:56;;;;;;;57.43;2.60;;;;;;;;;;5072190;28;21031;-69
2023/05/30 01:51:26;;;;;;;57.47;2.70;;;;;;;;;;5072307;28;20520;-69
2023/05/30 01:53:58;;;;;;;58.37;3.40;;;;;;;;;;5072614;28;20483;-69
2023/05/30 01:56:27;;;;;;;57.50;2.70;;;;;;;;;;5072579;28;20815;-69
2023/05/30 01:58:55;;;;;;;57.57;2.70;;;;;;;;;;5071704;28;21006;-69
2023/05/30 02:01:28;;;;;;;58.00;2.87;;;;;;;;;;5072302;28;21018;-69
2023/05/30 02:03:55;;;;;;;57.60;2.70;;;;;;;;;;5072725;28;20439;-69
2023/05/30 02:06:23;;;;;;;57.93;2.80;;;;;;;;;;5072201;28;20443;-69
2023/05/30 02:08:50;;;;;;;57.27;2.50;;;;;;;;;;5071743;28;20454;-69
2023/05/30 02:11:18;;;;;;;57.90;3.00;;;;;;;;;;5072505;28;20470;-69
2023/05/30 02:13:45;;;;;;;57.50;2.40;;;;;;;;;;5072310;28;20475;-69
2023/05/30 02:16:12;;;;;;;58.10;3.30;;;;;;;;;;5072455;28;20500;-69
2023/05/30 02:18:41;;;;;;;59.30;3.20;;;;;;;;;;5071343;28;20455;-69
2023/05/30 02:21:08;;;;;;;60.23;3.03;;;;;;;;;;5071722;28;20452;-69
2023/05/30 02:23:36;;;;;;;57.67;2.63;;;;;;;;;;5071808;28;20451;-69
2023/05/30 02:26:03;;;;;;;58.87;2.60;;;;;;;;;;5072182;28;20443;-69
2023/05/30 02:28:30;;;;;;;57.70;2.93;;;;;;;;;;5071723;28;20836;-69
2023/05/30 02:30:57;;;;;;;57.30;2.37;;;;;;;;;;5071508;28;20478;-69
2023/05/30 02:33:24;;;;;;;57.47;2.50;;;;;;;;;;5071890;28;20570;-69
2023/05/30 02:35:53;;;;;;;62.13;3.10;;;;;;;;;;5071690;28;20451;-69
2023/05/30 02:38:20;;;;;;;57.53;2.60;;;;;;;;;;5071918;28;20455;-69
2023/05/30 02:40:47;;;;;;;57.13;2.30;;;;;;;;;;5070395;28;20448;-69
2023/05/30 02:43:14;;;;;;;57.87;3.00;;;;;;;;;;5071416;28;20987;-69
2023/05/30 02:45:41;;;;;;;57.37;2.50;;;;;;;;;;5071664;28;20457;-69
2023/05/30 02:48:08;;;;;;;57.23;2.40;;;;;;;;;;5071319;28;20462;-69
2023/05/30 02:50:35;;;;;;;57.43;2.53;;;;;;;;;;5070744;28;20928;-69
2023/05/30 02:53:05;;;;;;;57.47;2.40;;;;;;;;;;5071787;28;20475;-69
2023/05/30 02:55:32;;;;;;;57.13;2.50;;;;;;;;;;5071492;28;20920;-69
2023/05/30 02:58:00;;;;;;;58.07;2.90;;;;;;;;;;5071417;28;20457;-69
2023/05/30 03:00:27;;;;;;;57.37;2.70;;;;;;;;;;5070652;28;20969;-69
2023/05/30 03:02:55;;;;;;;57.17;2.40;;;;;;;;;;5071511;28;20566;-69
2023/05/30 03:05:22;;;;;;;57.40;2.47;;;;;;;;;;5071469;28;20451;-69
2023/05/30 03:07:51;;;;;;;57.33;2.40;;;;;;;;;;5071593;28;20453;-69
2023/05/30 03:10:20;;;;;;;57.60;2.70;;;;;;;;;;5070790;28;20470;-69
2023/05/30 03:12:47;;;;;;;61.90;2.83;;;;;;;;;;5071161;28;20471;-69
2023/05/30 03:15:14;;;;;;;57.33;2.30;;;;;;;;;;5071068;28;20479;-69
2023/05/30 03:17:42;;;;;;;57.30;2.30;;;;;;;;;;5071436;28;20822;-69
2023/05/30 03:20:10;;;;;;;57.97;2.67;;;;;;;;;;5070606;28;20443;-69
2023/05/30 03:22:38;;;;;;;57.50;2.80;;;;;;;;;;5071530;28;20543;-69
2023/05/30 03:25:06;;;;;;;57.50;2.70;;;;;;;;;;5071169;28;20463;-69
2023/05/30 03:27:35;;;;;;;57.60;2.80;;;;;;;;;;5071027;28;20447;-69
2023/05/30 03:30:03;;;;;;;57.23;2.60;;;;;;;;;;5070554;28;20447;-69
2023/05/30 03:32:31;;;;;;;59.07;4.90;;;;;;;;;;5071037;28;20479;-69
2023/05/30 03:34:58;;;;;;;57.37;2.70;;;;;;;;;;5070921;28;21063;-69
2023/05/30 03:37:25;;;;;;;57.80;3.07;;;;;;;;;;5071487;28;20445;-69
2023/05/30 03:39:52;;;;;;;58.03;3.20;;;;;;;;;;5070234;28;20966;-69
2023/05/30 03:42:19;;;;;;;57.37;2.80;;;;;;;;;;5070738;28;20499;-69
2023/05/30 03:44:48;;;;;;;58.37;3.07;;;;;;;;;;5071121;28;20463;-69
2023/05/30 03:47:15;;;;;;;57.90;2.87;;;;;;;;;;5070795;28;20457;-69
2023/05/30 03:49:42;;;;;;;57.47;2.60;;;;;;;;;;5070097;28;20451;-69
2023/05/30 03:52:10;;;;;;;57.23;2.50;;;;;;;;;;5071144;28;20463;-69
2023/05/30 03:54:37;;;;;;;57.37;2.40;;;;;;;;;;5074937;28;20479;-69
2023/05/30 03:57:05;;;;;;;57.70;2.70;;;;;;;;;;5075051;28;20455;-69
2023/05/30 03:59:32;;;;;;;57.63;2.50;;;;;;;;;;5073993;28;20542;-69
2023/05/30 04:02:01;;;;;;;57.30;2.40;;;;;;;;;;5074843;28;20471;-69
2023/05/30 04:04:28;;;;;;;57.50;2.67;;;;;;;;;;5074773;28;20836;-69
2023/05/30 04:06:55;;;;;;;57.43;2.70;;;;;;;;;;5074631;28;20447;-69
2023/05/30 04:09:22;;;;;;;57.07;2.40;;;;;;;;;;5073713;28;20962;-69
2023/05/30 04:11:49;;;;;;;57.30;2.30;;;;;;;;;;5074753;28;20473;-69
2023/05/30 04:14:17;;;;;;;57.27;2.40;;;;;;;;;;5074396;28;20493;-69
2023/05/30 04:16:44;;;;;;;58.40;3.00;;;;;;;;;;5074438;28;20951;-69
2023/05/30 04:19:12;;;;;;;57.30;2.40;;;;;;;;;;5073799;28;20451;-69
2023/05/30 04:21:39;;;;;;;57.37;2.63;;;;;;;;;;5074136;28;20482;-69
2023/05/30 04:24:07;;;;;;;57.37;2.87;;;;;;;;;;5074339;28;20459;-69
2023/05/30 04:26:34;;;;;;;57.37;2.67;;;;;;;;;;5074510;28;20443;-69
2023/05/30 04:29:01;;;;;;;58.83;3.23;;;;;;;;;;5073835;28;20451;-69
2023/05/30 04:31:29;;;;;;;57.33;2.60;;;;;;;;;;5074342;28;20898;-69
2023/05/30 04:33:56;;;;;;;57.30;2.70;;;;;;;;;;5074130;28;20966;-69
2023/05/30 04:36:24;;;;;;;57.33;2.63;;;;;;;;;;5074215;28;20447;-69
2023/05/30 04:38:53;;;;;;;57.80;3.33;;;;;;;;;;5073303;28;20465;-69
2023/05/30 04:41:21;;;;;;;57.80;3.07;;;;;;;;;;5074205;28;20901;-69
2023/05/30 04:43:52;;;;;;;57.20;2.40;;;;;;;;;;5074207;28;20451;-69
2023/05/30 04:46:21;;;;;;;57.60;2.53;;;;;;;;;;5073876;28;20490;-69
2023/05/30 04:48:52;;;;;;;57.33;2.63;;;;;;;;;;5072918;28;20458;-69
2023/05/30 04:51:19;;;;;;;57.70;2.73;;;;;;;;;;5073958;28;20562;-69
2023/05/30 04:53:48;;;;;;;58.00;3.17;;;;;;;;;;5074080;28;20479;-69
2023/05/30 04:56:15;;;;;;;57.17;2.60;;;;;;;;;;5074101;28;20455;-69
2023/05/30 04:58:42;;;;;;;58.47;3.80;;;;;;;;;;5072856;28;20456;-69
2023/05/30 05:01:10;;;;;;;57.87;2.70;;;;;;;;;;5073497;28;20462;-69
2023/05/30 05:03:38;;;;;;;57.13;2.40;;;;;;;;;;5073542;28;20508;-69
2023/05/30 05:06:06;;;;;;;57.27;2.40;;;;;;;;;;5073424;28;20489;-69
2023/05/30 05:08:33;;;;;;;57.20;2.50;;;;;;;;;;5073260;28;20837;-69
2023/05/30 05:11:03;;;;;;;57.33;2.50;;;;;;;;;;5073736;28;20454;-69
2023/05/30 05:13:30;;;;;;;57.57;2.90;;;;;;;;;;5073477;28;20470;-69
2023/05/30 05:15:57;;;;;;;57.07;2.50;;;;;;;;;;5073165;28;20514;-69
2023/05/30 05:18:24;;;;;;;57.63;2.73;;;;;;;;;;5073278;28;20971;-69
2023/05/30 05:20:51;;;;;;;57.27;2.40;;;;;;;;;;5072824;28;20443;-69
2023/05/30 05:23:18;;;;;;;58.17;3.13;;;;;;;;;;5073438;28;20459;-69
2023/05/30 05:25:46;;;;;;;57.47;2.83;;;;;;;;;;5073249;28;20451;-69
2023/05/30 05:28:14;;;;;;;57.13;2.60;;;;;;;;;;5073412;28;20504;-69
2023/05/30 05:30:41;;;;;;;57.40;3.30;;;;;;;;;;5072307;28;20462;-69
2023/05/30 05:33:08;;;;;;;57.13;2.50;;;;;;;;;;5073244;28;20469;-69
2023/05/30 05:35:36;;;;;;;57.67;3.00;;;;;;;;;;5073223;28;20931;-69
2023/05/30 05:38:03;;;;;;;57.07;2.40;;;;;;;;;;5073188;28;20458;-69
2023/05/30 05:40:30;;;;;;;57.50;3.20;;;;;;;;;;5072222;28;20944;-69
2023/05/30 05:42:57;;;;;;;58.00;2.70;;;;;;;;;;5072980;28;20463;-69
2023/05/30 05:45:25;;;;;;;56.90;2.40;;;;;;;;;;5073096;28;20750;-69
2023/05/30 05:47:53;;;;;;;57.60;2.70;;;;;;;;;;5072765;28;20454;-69
2023/05/30 05:50:20;;;;;;;57.40;2.70;;;;;;;;;;5072181;28;20454;-69
2023/05/30 05:52:47;;;;;;;59.67;2.93;;;;;;;;;;5072568;28;20463;-69
2023/05/30 05:55:14;;;;;;;57.40;2.70;;;;;;;;;;5072455;28;21017;-69
2023/05/30 05:57:41;;;;;;;61.00;2.90;;;;;;;;;;5072873;28;20447;-70
2023/05/30 06:00:09;;;;;;;57.23;2.47;;;;;;;;;;5071638;28;20952;-69
2023/05/30 06:02:38;;;;;;;57.67;3.50;;;;;;;;;;5072317;28;21037;-69
2023/05/30 06:05:06;;;;;;;57.37;2.60;;;;;;;;;;5072497;28;20450;-69
2023/05/30 06:07:33;;;;;;;57.77;2.70;;;;;;;;;;5072584;28;20448;-69
2023/05/30 06:10:00;;;;;;;57.30;2.40;;;;;;;;;;5071351;28;20443;-69
2023/05/30 06:12:27;;;;;;;57.60;2.40;;;;;;;;;;5072130;28;20991;-69
2023/05/30 06:14:54;;;;;;;57.50;2.63;;;;;;;;;;5072313;28;20490;-69
2023/05/30 06:17:21;;;;;;;57.40;2.63;;;;;;;;;;5071109;28;20961;-69
2023/05/30 06:19:52;;;;;;;61.13;2.70;;;;;;;;;;5071529;28;20482;-69
2023/05/30 06:22:19;;;;;;;58.10;2.50;;;;;;;;;;5072594;28;20483;-69
2023/05/30 06:24:46;;;;;;;57.10;2.20;;;;;;;;;;5071814;28;20451;-69
2023/05/30 06:27:14;;;;;;;57.87;2.50;;;;;;;;;;5071819;28;20452;-69
2023/05/30 06:29:41;;;;;;;58.07;3.13;;;;;;;;;;5071212;28;20454;-69
2023/05/30 06:32:08;;;;;;;59.27;3.00;;;;;;;;;;5071925;28;20528;-70
2023/05/30 06:34:35;;;;;;;57.70;2.90;;;;;;;;;;5072017;28;20447;-69
2023/05/30 06:37:04;;;;;;;57.50;3.00;;;;;;;;;;5071705;28;20448;-69
2023/05/30 06:39:32;;;;;;;57.37;3.10;;;;;;;;;;5071109;28;21215;-69
2023/05/30 06:42:00;;;;;;;58.60;3.30;;;;;;;;;;5071940;28;20472;-69
2023/05/30 06:44:28;;;;;;;57.17;2.40;;;;;;;;;;5071707;28;20443;-69
2023/05/30 06:46:55;;;;;;;58.00;3.07;;;;;;;;;;5071792;28;20454;-69
2023/05/30 06:49:22;;;;;;;57.60;2.37;;;;;;;;;;5071015;28;20872;-69
2023/05/30 06:51:49;;;;;;;57.10;2.30;;;;;;;;;;5071118;28;20991;-69
2023/05/30 06:54:18;;;;;;;57.07;2.50;;;;;;;;;;5071443;28;20447;-69
2023/05/30 06:56:45;;;;;;;57.50;3.17;;;;;;;;;;5071518;28;20483;-70
2023/05/30 06:59:12;;;;;;;57.00;2.40;;;;;;;;;;5070919;28;20450;-70
2023/05/30 07:01:39;;;;;;;56.87;2.20;;;;;;;;;;5071752;28;20475;-70
2023/05/30 07:04:06;;;;;;;56.83;2.30;;;;;;;;;;5071308;28;20961;-70
2023/05/30 07:06:33;;;;;;;56.97;2.30;;;;;;;;;;5071495;28;20447;-70
2023/05/30 07:09:00;;;;;;;57.23;2.73;;;;;;;;;;5070588;28;20450;-70
2023/05/30 07:11:29;;;;;;;57.60;2.60;;;;;;;;;;5071426;28;20494;-70
2023/05/30 07:13:56;;;;;;;58.73;2.93;;;;;;;;;;5071177;28;20451;-70
2023/05/30 07:16:23;;;;;;;57.50;2.50;;;;;;;;;;5071268;28;20485;-70
2023/05/30 07:18:50;;;;;;;57.77;2.43;;;;;;;;;;5070306;28;20453;-70
2023/05/30 07:21:17;;;;;;;57.20;2.30;;;;;;;;;;5071026;28;20467;-70
2023/05/30 07:23:45;;;;;;;57.07;2.47;;;;;;;;;;5071187;28;20552;-70
2023/05/30 07:26:12;;;;;;;58.30;3.10;;;;;;;;;;5071273;28;20508;-70
2023/05/30 07:28:40;;;;;;;57.30;2.20;;;;;;;;;;5070124;28;20738;-70
2023/05/30 07:31:07;;;;;;;57.50;2.43;;;;;;;;;;5071052;28;20456;-70
2023/05/30 07:33:35;;;;;;;56.97;2.17;;;;;;;;;;5071326;28;20804;-70
2023/05/30 07:36:02;;;;;;;58.67;2.80;;;;;;;;;;5071709;28;20487;-70
2023/05/30 07:38:29;;;;;;;56.83;2.57;;;;;;;;;;5070843;28;20450;-70
2023/05/30 07:40:56;;;;;;;56.80;1.80;;;;;;;;;;5070612;28;20827;-70
2023/05/30 07:43:23;;;;;;;57.20;2.40;;;;;;;;;;5070988;28;20457;-70
2023/05/30 07:45:52;;;;;;;56.67;2.10;;;;;;;;;;5071182;28;20447;-70
2023/05/30 07:48:19;;;;;;;60.07;3.70;;;;;;;;;;5071111;28;20451;-70
2023/05/30 07:50:46;;;;;;;57.17;2.40;;;;;;;;;;5070603;28;20447;-70
2023/05/30 07:53:14;;;;;;;56.77;2.60;;;;;;;;;;5071135;28;20467;-70
2023/05/30 07:55:41;;;;;;;57.03;2.50;;;;;;;;;;5070697;28;21023;-70
2023/05/30 07:58:08;;;;;;;57.80;2.73;;;;;;;;;;5070734;28;20451;-70
2023/05/30 08:00:35;;;;;;;56.97;2.30;;;;;;;;;;5070065;28;20459;-70
2023/05/30 08:03:03;;;;;;;57.37;3.00;;;;;;;;;;5070769;28;20471;-70
2023/05/30 08:05:30;;;;;;;57.07;2.10;;;;;;;;;;5070922;28;20814;-69
2023/05/30 08:07:57;;;;;;;57.40;2.60;;;;;;;;;;5070719;28;20449;-70
2023/05/30 08:10:25;;;;;;;56.93;2.30;;;;;;;;;;5070388;28;20819;-70
2023/05/30 08:12:52;;;;;;;56.50;2.20;;;;;;;;;;5070798;28;20463;-70
2023/05/30 08:15:19;;;;;;;57.00;2.20;;;;;;;;;;5070604;28;20490;-70
2023/05/30 08:17:46;;;;;;;57.17;2.47;;;;;;;;;;5070730;28;20447;-70
2023/05/30 08:20:16;;;;;;;58.43;2.77;;;;;;;;;;5070088;28;20528;-70
2023/05/30 08:22:43;;;;;;;56.67;2.10;;;;;;;;;;5070437;28;20478;-69
2023/05/30 08:25:10;;;;;;;56.67;2.23;;;;;;;;;;5070448;28;20460;-70
2023/05/30 08:27:38;;;;;;;57.13;2.40;;;;;;;;;;5070655;28;20455;-70
2023/05/30 08:30:06;;;;;;;58.00;3.13;;;;;;;;;;5069638;28;20452;-70
2023/05/30 08:32:33;;;;;;;57.50;2.67;;;;;;;;;;5070362;28;20467;-70
2023/05/30 08:35:01;;;;;;;57.90;2.93;;;;;;;;;;5070537;28;20451;-70
2023/05/30 08:37:29;;;;;;;56.93;2.23;;;;;;;;;;5070649;28;20815;-70
2023/05/30 08:39:56;;;;;;;57.27;2.03;;;;;;;;;;5071364;28;20815;-70
2023/05/30 08:42:25;;;;;;;57.07;2.30;;;;;;;;;;5074182;28;20467;-70
2023/05/30 08:44:52;;;;;;;56.83;2.33;;;;;;;;;;5074261;28;20524;-70
2023/05/30 08:47:21;;;;;;;62.23;2.77;;;;;;;;;;5074175;28;20504;-70
2023/05/30 08:49:52;;;;;;;56.97;2.00;;;;;;;;;;5073146;28;20498;-70
2023/05/30 08:52:20;;;;;;;57.20;2.20;;;;;;;;;;5073896;28;20478;-70
2023/05/30 08:54:55;;;;;;;57.00;2.60;;;;;;;;;;5073589;28;20962;-70
2023/05/30 08:57:25;;;;;;;57.17;2.40;;;;;;;;;;5073770;28;20595;-70
2023/05/30 08:59:55;;;;;;;57.00;3.33;;;;;;;;;;5072839;28;20538;-70
2023/05/30 09:02:22;;;;;;;57.70;3.47;;;;;;;;;;5074209;28;20468;-70
2023/05/30 09:04:50;;;;;;;58.00;2.87;;;;;;;;;;5073510;28;20975;-70
2023/05/30 09:07:17;;;;;;;60.70;3.23;;;;;;;;;;5073346;28;20497;-71
2023/05/30 09:09:44;;;;;;;56.53;2.00;;;;;;;;;;5072714;28;20457;-70
2023/05/30 09:12:13;;;;;;;56.77;2.20;;;;;;;;;;5073404;28;20471;-70
2023/05/30 09:14:40;;;;;;;57.30;2.50;;;;;;;;;;5073343;28;20451;-71
2023/05/30 09:17:07;;;;;;;56.93;2.00;;;;;;;;;;5073657;28;20487;-69
2023/05/30 09:19:35;;;;;;;56.77;2.20;;;;;;;;;;5072556;28;20451;-69
2023/05/30 09:22:02;;;;;;;58.37;2.30;;;;;;;;;;5073428;28;20874;-70
2023/05/30 09:24:44;;;;;;;57.60;2.40;;;;;;;;;;5073119;28;20472;-70
2023/05/30 09:27:13;;;;;;;57.17;2.30;;;;;;;;;;5073034;28;20462;-69
2023/05/30 09:29:43;;;;;;;57.50;2.47;;;;;;;;;;5072632;28;20458;-69
2023/05/30 09:32:11;;;;;;;58.10;3.87;;;;;;;;;;5073181;28;20467;-69
2023/05/30 09:34:38;;;;;;;57.40;2.20;;;;;;;;;;5073325;28;20449;-70
2023/05/30 09:37:05;;;;;;;60.87;2.67;;;;;;;;;;5073301;28;20487;-70
2023/05/30 09:39:33;;;;;;;57.00;2.17;;;;;;;;;;5072172;28;20459;-70
2023/05/30 09:42:00;;;;;;;59.77;2.27;;;;;;;;;;5072910;28;20471;-70
2023/05/30 09:44:28;;;;;;;57.17;2.30;;;;;;;;;;5072889;28;20963;-70
2023/05/30 09:46:56;;;;;;;56.87;2.17;;;;;;;;;;5072648;28;20436;-70
2023/05/30 09:49:24;;;;;;;56.97;2.27;;;;;;;;;;5072260;28;20451;-70
2023/05/30 09:51:51;;;;;;;57.30;2.50;;;;;;;;;;5072879;28;20473;-70
2023/05/30 09:54:20;;;;;;;58.90;3.80;;;;;;;;;;5072766;28;20443;-70
2023/05/30 09:56:47;;;;;;;57.17;2.30;;;;;;;;;;5072622;28;20533;-70
2023/05/30 09:59:15;;;;;;;57.57;2.50;;;;;;;;;;5071705;28;20969;-70
2023/05/30 10:01:44;;;;;;;56.83;2.40;;;;;;;;;;5072832;28;20482;-70
2023/05/30 10:04:12;;;;;;;58.00;2.73;;;;;;;;;;5072425;28;20967;-69
2023/05/30 10:06:41;;;;;;;57.37;2.57;;;;;;;;;;5072588;28;20823;-70
2023/05/30 10:09:08;;;;;;;57.60;3.13;;;;;;;;;;5071547;28;20447;-69
2023/05/30 10:11:36;;;;;;;56.27;2.10;;;;;;;;;;5072221;28;20559;-70
2023/05/30 10:14:03;;;;;;;57.17;2.23;;;;;;;;;;5072132;28;20451;-69
2023/05/30 10:16:32;;;;;;;59.37;2.50;;;;;;;;;;5072311;28;20491;-70
2023/05/30 10:19:01;;;;;;;57.20;2.40;;;;;;;;;;5071449;28;20804;-70
2023/05/30 10:21:32;;;;;;;58.37;3.07;;;;;;;;;;5072073;28;21051;-70
2023/05/30 10:24:00;;;;;;;56.90;1.90;;;;;;;;;;5072018;28;20490;-70
2023/05/30 10:26:31;;;;;;;57.40;2.40;;;;;;;;;;5072184;28;20447;-70
2023/05/30 10:28:58;;;;;;;56.70;2.00;;;;;;;;;;5071335;28;20458;-70
2023/05/30 10:31:26;;;;;;;56.70;2.07;;;;;;;;;;5072132;28;21081;-70
2023/05/30 10:33:53;;;;;;;57.47;1.90;;;;;;;;;;5072102;28;20453;-70
2023/05/30 10:36:22;;;;;;;56.73;2.10;;;;;;;;;;5072045;28;20493;-71
2023/05/30 10:38:53;;;;;;;56.77;2.40;;;;;;;;;;5070743;28;20451;-71
2023/05/30 10:41:24;;;;;;;56.17;2.00;;;;;;;;;;5071678;28;20459;-71
2023/05/30 10:43:58;;;;;;;56.57;2.10;;;;;;;;;;5071976;28;20437;-70
2023/05/30 10:46:26;;;;;;;56.57;2.40;;;;;;;;;;5071619;28;20940;-71
2023/05/30 10:48:57;;;;;;;55.90;1.70;;;;;;;;;;5070665;28;20458;-70
2023/05/30 10:51:25;;;;;;;56.00;1.90;;;;;;;;;;5071421;28;20477;-71
2023/05/30 10:53:53;;;;;;;63.20;2.57;;;;;;;;;;5071661;28;20444;-70
2023/05/30 10:56:33;;;;;;;56.00;2.10;;;;;;;;;;5071657;28;20487;-71
2023/05/30 10:59:02;;;;;;;56.00;2.00;;;;;;;;;;5070560;28;20533;-70
2023/05/30 11:01:29;;;;;;;56.07;2.10;;;;;;;;;;5071283;28;20479;-70
2023/05/30 11:03:57;;;;;;;56.57;2.67;;;;;;;;;;5071149;28;20443;-71
2023/05/30 11:06:26;;;;;;;57.83;2.23;;;;;;;;;;5071247;28;20963;-71
2023/05/30 11:08:54;;;;;;;56.13;1.90;;;;;;;;;;5070722;28;20558;-71
2023/05/30 11:11:22;;;;;;;55.80;1.80;;;;;;;;;;5071276;28;20478;-71
2023/05/30 11:13:50;;;;;;;56.23;2.00;;;;;;;;;;5071162;28;20455;-68
2023/05/30 11:16:24;;;;;;;55.67;1.77;;;;;;;;;;5071258;28;20482;-69
2023/05/30 11:18:53;;;;;;;56.00;2.40;;;;;;;;;;5070696;28;20458;-69
2023/05/30 11:21:35;;;;;;;55.90;1.97;;;;;;;;;;5071245;28;20562;-70
2023/05/30 11:24:04;;;;;;;55.57;1.80;;;;;;;;;;5068847;28;20467;-70
2023/05/30 11:26:46;;;;;;;55.97;1.93;;;;;;;;;;5071176;28;20462;-70
2023/05/30 11:29:28;;;;;;;55.80;1.70;;;;;;;;;;5070235;28;20453;-70
2023/05/30 11:31:55;;;;;;;56.27;2.67;;;;;;;;;;5071319;28;20473;-70
2023/05/30 11:34:23;;;;;;;55.67;1.77;;;;;;;;;;5071455;28;20443;-70
2023/05/30 11:36:50;;;;;;;55.40;1.70;;;;;;;;;;5070959;28;20498;-70
2023/05/30 11:39:22;;;;;;;55.47;1.57;;;;;;;;;;5070116;28;20966;-71
2023/05/30 11:41:49;;;;;;;55.80;2.10;;;;;;;;;;5071211;28;20478;-70
2023/05/30 11:44:19;;;;;;;55.57;2.00;;;;;;;;;;5071371;28;20443;-70
2023/05/30 11:46:58;;;;;;;55.40;1.80;;;;;;;;;;5070985;28;20458;-70
2023/05/30 11:49:25;;;;;;;55.27;1.90;;;;;;;;;;5070144;28;20512;-70
2023/05/30 11:51:53;;;;;;;55.60;2.00;;;;;;;;;;5070620;28;20471;-71
2023/05/30 11:54:21;;;;;;;55.80;1.80;;;;;;;;;;5071199;28;20443;-70
2023/05/30 11:56:50;;;;;;;55.80;2.03;;;;;;;;;;5070821;28;20486;-71
2023/05/30 11:59:18;;;;;;;55.70;1.80;;;;;;;;;;5070108;28;20455;-70
2023/05/30 12:01:50;;;;;;;55.70;1.53;;;;;;;;;;5070864;28;20859;-70
2023/05/30 12:04:17;;;;;;;55.67;1.70;;;;;;;;;;5070793;28;20677;-71
2023/05/30 12:06:46;;;;;;;55.23;1.60;;;;;;;;;;5070713;28;20457;-71
2023/05/30 12:09:13;;;;;;;55.70;2.20;;;;;;;;;;5070255;28;20522;-71
2023/05/30 12:11:51;;;;;;;55.70;2.03;;;;;;;;;;5070904;28;20468;-71
2023/05/30 12:14:18;;;;;;;55.77;1.80;;;;;;;;;;5071277;28;20453;-71
2023/05/30 12:16:46;;;;;;;55.70;2.03;;;;;;;;;;5074247;28;20851;-71
2023/05/30 12:19:13;;;;;;;55.43;1.80;;;;;;;;;;5073739;28;21017;-71
2023/05/30 12:21:42;;;;;;;55.67;2.67;;;;;;;;;;5074472;28;20471;-70
2023/05/30 12:24:11;;;;;;;55.80;2.50;;;;;;;;;;5074307;28;20459;-70
2023/05/30 12:26:38;;;;;;;55.40;2.00;;;;;;;;;;5074267;28;20940;-71
2023/05/30 12:29:10;;;;;;;55.60;2.33;;;;;;;;;;5073473;28;20456;-71
2023/05/30 12:31:37;;;;;;;55.30;1.80;;;;;;;;;;5074065;28;20514;-71
2023/05/30 12:34:04;;;;;;;55.80;2.40;;;;;;;;;;5074114;28;20991;-71
2023/05/30 12:36:33;;;;;;;55.70;2.20;;;;;;;;;;5074134;28;20443;-71
2023/05/30 12:39:00;;;;;;;55.63;2.23;;;;;;;;;;5073372;28;20494;-70
2023/05/30 12:41:30;;;;;;;56.00;2.67;;;;;;;;;;5074180;28;20467;-71
2023/05/30 12:43:58;;;;;;;55.30;1.77;;;;;;;;;;5073798;28;20496;-70
2023/05/30 12:46:28;;;;;;;55.90;2.10;;;;;;;;;;5073882;28;20455;-71
2023/05/30 12:48:55;;;;;;;55.60;2.00;;;;;;;;;;5073375;28;20458;-71
2023/05/30 12:51:22;;;;;;;55.37;2.00;;;;;;;;;;5073653;28;20471;-71
2023/05/30 12:53:53;;;;;;;55.50;1.70;;;;;;;;;;5074069;28;20443;-71
2023/05/30 12:56:20;;;;;;;55.57;2.00;;;;;;;;;;5073751;28;20440;-71
2023/05/30 12:58:47;;;;;;;55.47;1.90;;;;;;;;;;5072903;28;20999;-70
2023/05/30 13:01:14;;;;;;;55.30;1.80;;;;;;;;;;5073600;28;20447;-71
2023/05/30 13:03:43;;;;;;;55.47;2.00;;;;;;;;;;5073836;28;20451;-71
2023/05/30 13:06:10;;;;;;;55.33;1.80;;;;;;;;;;5073651;28;20505;-70
2023/05/30 13:08:37;;;;;;;55.90;2.30;;;;;;;;;;5072774;28;20940;-70
2023/05/30 13:11:05;;;;;;;55.70;2.30;;;;;;;;;;5073764;28;20508;-71
2023/05/30 13:13:32;;;;;;;55.60;2.30;;;;;;;;;;5073760;28;20449;-71
2023/05/30 13:15:59;;;;;;;55.27;1.70;;;;;;;;;;5073604;28;20473;-71
2023/05/30 13:18:26;;;;;;;56.20;2.20;;;;;;;;;;5073249;28;20896;-71
2023/05/30 13:20:55;;;;;;;55.60;2.13;;;;;;;;;;5073264;28;20547;-71
2023/05/30 13:23:22;;;;;;;55.57;2.33;;;;;;;;;;5073077;28;20467;-71
2023/05/30 13:25:49;;;;;;;56.07;2.73;;;;;;;;;;5072933;28;20447;-71
2023/05/30 13:28:16;;;;;;;55.70;2.10;;;;;;;;;;5073376;28;20473;-71
2023/05/30 13:30:43;;;;;;;55.30;1.80;;;;;;;;;;5072867;28;20447;-71
2023/05/30 13:33:10;;;;;;;56.67;2.27;;;;;;;;;;5073287;28;20493;-71
2023/05/30 13:35:38;;;;;;;55.40;2.63;;;;;;;;;;5072896;28;20494;-71
2023/05/30 13:38:06;;;;;;;55.57;2.07;;;;;;;;;;5072920;28;20493;-71
2023/05/30 13:40:33;;;;;;;55.30;2.00;;;;;;;;;;5072335;28;20463;-71
2023/05/30 13:43:00;;;;;;;55.90;2.63;;;;;;;;;;5073404;28;20464;-70
2023/05/30 13:45:27;;;;;;;55.30;1.93;;;;;;;;;;5072901;28;20447;-71
2023/05/30 13:47:55;;;;;;;56.97;3.97;;;;;;;;;;5072777;28;20447;-70
2023/05/30 13:50:23;;;;;;;55.90;1.70;;;;;;;;;;5072540;28;20834;-71
2023/05/30 13:52:50;;;;;;;55.67;1.73;;;;;;;;;;5072652;28;20463;-71
2023/05/30 13:55:18;;;;;;;55.77;1.73;;;;;;;;;;5073012;28;20453;-70
2023/05/30 13:57:47;;;;;;;55.67;1.97;;;;;;;;;;5072790;28;20482;-71
2023/05/30 14:00:16;;;;;;;55.67;1.80;;;;;;;;;;5071885;28;20451;-71
2023/05/30 14:02:43;;;;;;;55.87;1.93;;;;;;;;;;5072670;28;20471;-71
2023/05/30 14:05:10;;;;;;;55.30;1.77;;;;;;;;;;5072361;28;20534;-71
2023/05/30 14:07:38;;;;;;;56.00;2.30;;;;;;;;;;5072465;28;20444;-71
2023/05/30 14:10:05;;;;;;;55.50;1.70;;;;;;;;;;5071879;28;20516;-71
2023/05/30 14:12:34;;;;;;;56.83;2.30;;;;;;;;;;5072302;28;20470;-71
2023/05/30 14:15:01;;;;;;;55.60;1.80;;;;;;;;;;5072389;28;20439;-71
2023/05/30 14:17:28;;;;;;;55.90;2.13;;;;;;;;;;5072336;28;20545;-70
2023/05/30 14:19:55;;;;;;;55.70;1.90;;;;;;;;;;5071667;28;20453;-71
2023/05/30 14:22:22;;;;;;;55.60;1.97;;;;;;;;;;5072226;28;20464;-70
2023/05/30 14:24:50;;;;;;;55.73;1.80;;;;;;;;;;5072058;28;20459;-70
2023/05/30 14:27:17;;;;;;;55.67;1.90;;;;;;;;;;5072368;28;20454;-71
2023/05/30 14:29:45;;;;;;;56.20;2.40;;;;;;;;;;5071446;28;20448;-71
2023/05/30 14:32:14;;;;;;;55.97;1.80;;;;;;;;;;5071600;28;20999;-70
2023/05/30 14:34:41;;;;;;;56.40;2.00;;;;;;;;;;5071836;28;20451;-70
2023/05/30 14:37:08;;;;;;;56.30;1.87;;;;;;;;;;5071139;28;20535;-70